createdAt,value
2019-03-03T00:02:10.030Z,9.10
2019-03-03T00:04:38.789Z,9.18
2019-03-03T00:07:06.944Z,9.18
2019-03-03T00:09:35.038Z,9.19
2019-03-03T00:12:03.843Z,9.20
2019-03-03T00:14:31.945Z,9.26
2019-03-03T00:17:00.168Z,9.25
2019-03-03T00:19:28.298Z,9.39
2019-03-03T00:21:56.728Z,9.37
2019-03-03T00:24:25.622Z,9.41
2019-03-03T00:26:53.721Z,9.44
2019-03-03T00:29:21.902Z,9.38
2019-03-03T00:31:50.015Z,9.43
2019-03-03T00:34:18.155Z,9.41
2019-03-03T00:37:04.780Z,9.51
2019-03-03T00:39:43.436Z,9.53
2019-03-03T00:42:28.779Z,9.57
2019-03-03T00:45:25.849Z,9.65
2019-03-03T00:48:09.974Z,9.73
2019-03-03T00:51:09.870Z,9.75
2019-03-03T00:54:00.494Z,9.74
2019-03-03T00:56:44.218Z,9.80
2019-03-03T00:59:50.164Z,9.69
2019-03-03T01:02:30.914Z,9.74
2019-03-03T01:05:17.734Z,9.66
2019-03-03T01:08:05.576Z,9.72
2019-03-03T01:10:49.464Z,9.71
2019-03-03T01:13:46.218Z,9.67
2019-03-03T01:16:46.087Z,9.77
2019-03-03T01:19:27.139Z,9.68
2019-03-03T01:22:15.239Z,9.65
2019-03-03T01:25:01.006Z,9.61
2019-03-03T01:27:29.119Z,9.65
2019-03-03T01:29:57.763Z,9.67
2019-03-03T01:32:26.225Z,9.67
2019-03-03T01:34:54.351Z,9.62
2019-03-03T01:37:22.540Z,9.71
2019-03-03T01:39:50.697Z,9.73
2019-03-03T01:42:19.273Z,9.76
2019-03-03T01:44:47.390Z,9.73
2019-03-03T01:47:15.645Z,9.75
2019-03-03T01:49:43.821Z,9.68
2019-03-03T01:52:11.950Z,9.79
2019-03-03T01:54:40.055Z,9.82
2019-03-03T01:57:08.418Z,9.77
2019-03-03T01:59:36.575Z,9.83
2019-03-03T02:02:05.375Z,9.83
2019-03-03T02:04:33.498Z,9.93
2019-03-03T02:07:01.605Z,9.90
2019-03-03T02:09:29.671Z,9.78
2019-03-03T02:11:58.055Z,9.82
2019-03-03T02:14:26.234Z,9.89
2019-03-03T02:16:54.274Z,9.91
2019-03-03T02:19:22.855Z,9.89
2019-03-03T02:21:50.982Z,9.89
2019-03-03T02:24:19.269Z,9.92
2019-03-03T02:26:47.322Z,9.94
2019-03-03T02:29:15.416Z,9.89
2019-03-03T02:31:43.681Z,9.93
2019-03-03T02:34:12.449Z,9.84
2019-03-03T02:36:40.615Z,9.83
2019-03-03T02:39:16.624Z,9.86
2019-03-03T02:41:44.757Z,9.87
2019-03-03T02:44:13.013Z,9.87
2019-03-03T02:46:41.403Z,9.86
2019-03-03T02:49:10.260Z,9.88
2019-03-03T02:51:38.510Z,9.84
2019-03-03T02:54:06.651Z,9.87
2019-03-03T02:56:34.728Z,9.88
2019-03-03T02:59:03.034Z,9.88
2019-03-03T03:01:36.391Z,9.90
2019-03-03T03:04:04.717Z,9.83
2019-03-03T03:06:38.507Z,9.93
2019-03-03T03:09:25.659Z,9.92
2019-03-03T03:12:13.478Z,9.82
2019-03-03T03:15:13.323Z,9.85
2019-03-03T03:18:00.082Z,9.89
2019-03-03T03:20:53.742Z,9.89
2019-03-03T03:23:41.856Z,9.89
2019-03-03T03:26:21.191Z,9.92
2019-03-03T03:29:11.553Z,9.97
2019-03-03T03:32:08.375Z,9.97
2019-03-03T03:34:40.708Z,9.98
2019-03-03T03:37:21.282Z,9.97
2019-03-03T03:40:14.585Z,9.95
2019-03-03T03:43:08.373Z,9.99
2019-03-03T03:45:56.058Z,9.99
2019-03-03T03:48:49.545Z,9.96
2019-03-03T03:51:35.343Z,10.00
2019-03-03T03:54:23.681Z,10.03
2019-03-03T03:57:00.539Z,10.06
2019-03-03T03:59:35.397Z,10.04
2019-03-03T04:02:26.109Z,10.01
2019-03-03T04:05:16.432Z,10.03
2019-03-03T04:07:51.753Z,10.07
2019-03-03T04:10:31.465Z,10.10
2019-03-03T04:13:08.744Z,10.08
2019-03-03T04:15:48.274Z,10.11
2019-03-03T04:18:24.887Z,10.15
2019-03-03T04:21:11.460Z,10.16
2019-03-03T04:23:57.691Z,10.19
2019-03-03T04:26:44.208Z,10.17
2019-03-03T04:29:19.130Z,10.16
2019-03-03T04:32:13.114Z,10.22
2019-03-03T04:35:00.826Z,10.25
2019-03-03T04:38:00.765Z,10.22
2019-03-03T04:40:47.196Z,10.22
2019-03-03T04:43:36.766Z,10.19
2019-03-03T04:46:22.709Z,10.18
2019-03-03T04:49:28.837Z,10.23
2019-03-03T04:52:15.438Z,10.18
2019-03-03T04:55:06.082Z,10.08
2019-03-03T04:57:56.798Z,10.11
2019-03-03T05:00:43.551Z,10.12
2019-03-03T05:03:19.041Z,9.98
2019-03-03T05:06:21.864Z,9.94
2019-03-03T05:08:56.983Z,9.92
2019-03-03T05:12:28.286Z,9.75
2019-03-03T05:15:09.034Z,9.68
2019-03-03T05:17:44.061Z,9.55
2019-03-03T05:20:12.434Z,9.48
2019-03-03T05:22:40.552Z,9.43
2019-03-03T05:25:08.653Z,9.44
2019-03-03T05:27:36.949Z,9.41
2019-03-03T05:30:05.269Z,9.33
2019-03-03T05:32:33.364Z,9.30
2019-03-03T05:35:01.986Z,9.29
2019-03-03T05:37:30.932Z,9.22
2019-03-03T05:39:59.737Z,9.21
2019-03-03T05:42:27.807Z,9.16
2019-03-03T05:44:56.086Z,9.16
2019-03-03T05:47:25.023Z,9.13
2019-03-03T05:49:53.103Z,9.12
2019-03-03T05:52:21.170Z,9.14
2019-03-03T05:54:49.261Z,9.11
2019-03-03T05:57:17.373Z,9.11
2019-03-03T05:59:45.507Z,9.07
2019-03-03T06:02:13.596Z,9.04
2019-03-03T06:04:41.894Z,9.05
2019-03-03T06:07:10.343Z,9.05
2019-03-03T06:09:38.389Z,8.98
2019-03-03T06:12:07.151Z,9.04
2019-03-03T06:14:35.242Z,9.02
2019-03-03T06:17:03.440Z,9.04
2019-03-03T06:19:31.861Z,9.01
2019-03-03T06:21:59.930Z,9.07
2019-03-03T06:24:28.067Z,9.08
2019-03-03T06:26:56.511Z,9.08
2019-03-03T06:29:24.661Z,9.02
2019-03-03T06:31:52.746Z,9.10
2019-03-03T06:34:20.857Z,9.08
2019-03-03T06:36:49.105Z,9.05
2019-03-03T06:39:17.179Z,9.12
2019-03-03T06:41:45.461Z,9.08
2019-03-03T06:44:14.123Z,9.16
2019-03-03T06:46:42.195Z,9.12
2019-03-03T06:49:10.340Z,9.11
2019-03-03T06:51:38.422Z,9.14
2019-03-03T06:54:06.490Z,9.12
2019-03-03T06:56:34.568Z,9.14
2019-03-03T06:59:02.734Z,9.15
2019-03-03T07:01:30.879Z,9.16
2019-03-03T07:03:59.044Z,9.21
2019-03-03T07:06:27.260Z,9.16
2019-03-03T07:08:55.287Z,9.23
2019-03-03T07:11:24.047Z,9.25
2019-03-03T07:13:52.185Z,9.25
2019-03-03T07:16:20.584Z,9.22
2019-03-03T07:18:48.678Z,9.26
2019-03-03T07:21:16.744Z,9.31
2019-03-03T07:23:45.253Z,9.33
2019-03-03T07:26:13.630Z,9.27
2019-03-03T07:28:41.978Z,9.34
2019-03-03T07:31:10.064Z,9.32
2019-03-03T07:33:41.087Z,9.32
2019-03-03T07:36:09.694Z,9.33
2019-03-03T07:38:38.421Z,9.34
2019-03-03T07:41:06.484Z,9.44
2019-03-03T07:43:35.394Z,9.47
2019-03-03T07:46:03.703Z,9.42
2019-03-03T07:48:31.764Z,9.41
2019-03-03T07:50:59.922Z,9.45
2019-03-03T07:53:28.673Z,9.45
2019-03-03T07:55:57.389Z,9.43
2019-03-03T07:58:25.509Z,9.46
2019-03-03T08:00:53.540Z,9.48
2019-03-03T08:03:22.821Z,9.42
2019-03-03T08:05:50.974Z,9.49
2019-03-03T08:08:19.034Z,9.52
2019-03-03T08:10:47.146Z,9.55
2019-03-03T08:13:15.512Z,9.48
2019-03-03T08:15:44.026Z,9.56
2019-03-03T08:18:12.607Z,9.54
2019-03-03T08:20:40.691Z,9.47
2019-03-03T08:23:08.756Z,9.53
2019-03-03T08:25:36.931Z,9.49
2019-03-03T08:28:05.072Z,9.55
2019-03-03T08:30:33.261Z,9.47
2019-03-03T08:33:01.739Z,9.48
2019-03-03T08:35:29.991Z,9.49
2019-03-03T08:37:58.090Z,9.49
2019-03-03T08:40:26.416Z,9.54
2019-03-03T08:43:16.911Z,9.56
2019-03-03T08:46:10.443Z,9.58
2019-03-03T08:49:13.321Z,9.59
2019-03-03T08:52:13.300Z,9.59
2019-03-03T08:55:13.476Z,9.54
2019-03-03T08:57:50.168Z,9.57
2019-03-03T09:00:36.769Z,9.66
2019-03-03T09:03:33.576Z,9.70
2019-03-03T09:06:19.626Z,9.66
2019-03-03T09:09:06.154Z,9.71
2019-03-03T09:11:53.919Z,9.76
2019-03-03T09:14:56.985Z,9.81
2019-03-03T09:17:35.121Z,9.85
2019-03-03T09:20:38.433Z,9.87
2019-03-03T09:23:26.152Z,9.89
2019-03-03T09:26:05.742Z,9.97
2019-03-03T09:29:08.529Z,10.01
2019-03-03T09:31:54.978Z,9.99
2019-03-03T09:34:42.630Z,9.95
2019-03-03T09:37:48.620Z,9.98
2019-03-03T09:40:35.285Z,10.10
2019-03-03T09:43:30.970Z,10.11
2019-03-03T09:46:25.201Z,10.18
2019-03-03T09:49:17.224Z,10.24
2019-03-03T09:52:18.967Z,10.21
2019-03-03T09:55:05.606Z,10.24
2019-03-03T09:57:53.568Z,10.19
2019-03-03T10:00:40.251Z,10.17
2019-03-03T10:03:35.502Z,10.23
2019-03-03T10:06:32.554Z,10.22
2019-03-03T10:09:18.929Z,10.28
2019-03-03T10:11:55.745Z,10.24
2019-03-03T10:14:46.200Z,10.17
2019-03-03T10:17:20.360Z,10.24
2019-03-03T10:19:58.394Z,10.17
2019-03-03T10:23:05.744Z,10.25
2019-03-03T10:25:58.715Z,10.27
2019-03-03T10:28:49.643Z,10.28
2019-03-03T10:31:40.276Z,10.27
2019-03-03T10:34:13.589Z,10.24
2019-03-03T10:36:54.398Z,10.31
2019-03-03T10:39:37.603Z,10.23
2019-03-03T10:42:11.935Z,10.30
2019-03-03T10:44:58.807Z,10.28
2019-03-03T10:47:49.514Z,10.36
2019-03-03T10:50:36.091Z,10.44
2019-03-03T10:53:13.064Z,10.34
2019-03-03T10:55:48.638Z,10.32
2019-03-03T10:58:45.184Z,10.29
2019-03-03T11:01:24.120Z,10.33
2019-03-03T11:04:10.789Z,10.31
2019-03-03T11:06:59.590Z,10.31
2019-03-03T11:09:46.517Z,10.35
2019-03-03T11:12:34.231Z,10.40
2019-03-03T11:15:22.016Z,10.38
2019-03-03T11:18:09.758Z,10.48
2019-03-03T11:20:59.210Z,10.40
2019-03-03T11:23:35.093Z,10.42
2019-03-03T11:26:35.101Z,10.41
2019-03-03T11:29:25.567Z,10.48
2019-03-03T11:32:12.395Z,10.43
2019-03-03T11:35:02.902Z,10.46
2019-03-03T11:38:08.773Z,10.47
2019-03-03T11:40:55.224Z,10.45
2019-03-03T11:43:40.449Z,10.47
2019-03-03T11:46:21.463Z,10.52
2019-03-03T11:49:21.369Z,10.59
2019-03-03T11:51:58.849Z,10.59
2019-03-03T11:54:34.308Z,10.57
2019-03-03T11:57:07.817Z,10.58
2019-03-03T12:00:09.869Z,10.54
2019-03-03T12:03:00.580Z,10.61
2019-03-03T12:05:39.604Z,10.69
2019-03-03T12:08:17.165Z,10.63
2019-03-03T12:11:05.128Z,10.63
2019-03-03T12:14:05.129Z,10.69
2019-03-03T12:17:05.303Z,10.75
2019-03-03T12:19:45.993Z,10.75
2019-03-03T12:22:21.609Z,10.79
2019-03-03T12:25:15.199Z,10.77
2019-03-03T12:28:03.419Z,10.84
2019-03-03T12:30:40.960Z,10.76
2019-03-03T12:33:34.426Z,10.95
2019-03-03T12:36:15.291Z,10.87
2019-03-03T12:39:01.828Z,10.96
2019-03-03T12:41:44.111Z,10.96
2019-03-03T12:44:37.870Z,10.96
2019-03-03T12:47:13.535Z,11.03
2019-03-03T12:49:58.766Z,11.09
2019-03-03T12:52:36.990Z,11.01
2019-03-03T12:55:33.927Z,11.18
2019-03-03T12:58:18.543Z,11.10
2019-03-03T13:01:06.590Z,11.19
2019-03-03T13:03:56.386Z,11.31
2019-03-03T13:06:46.274Z,11.16
2019-03-03T13:09:46.568Z,11.11
2019-03-03T13:12:23.320Z,11.16
2019-03-03T13:15:03.979Z,11.24
2019-03-03T13:17:51.129Z,11.25
2019-03-03T13:20:26.580Z,11.20
2019-03-03T13:23:15.687Z,11.26
2019-03-03T13:26:03.777Z,11.20
2019-03-03T13:28:49.796Z,11.08
2019-03-03T13:31:27.601Z,11.15
2019-03-03T13:34:14.768Z,11.09
2019-03-03T13:36:49.438Z,11.04
2019-03-03T13:39:43.003Z,11.02
2019-03-03T13:42:29.453Z,10.96
2019-03-03T13:44:59.345Z,10.99
2019-03-03T13:47:27.522Z,11.07
2019-03-03T13:49:55.638Z,10.97
2019-03-03T13:52:25.162Z,10.94
2019-03-03T13:54:53.249Z,10.99
2019-03-03T13:57:21.382Z,10.95
2019-03-03T13:59:49.533Z,10.89
2019-03-03T14:02:17.832Z,11.01
2019-03-03T14:04:46.254Z,11.04
2019-03-03T14:07:14.999Z,11.01
2019-03-03T14:09:43.333Z,11.04
2019-03-03T14:12:11.454Z,10.98
2019-03-03T14:14:39.600Z,10.85
2019-03-03T14:17:07.827Z,10.98
2019-03-03T14:19:36.420Z,11.01
2019-03-03T14:22:04.845Z,11.03
2019-03-03T14:24:32.914Z,11.10
2019-03-03T14:27:10.106Z,11.09
2019-03-03T14:29:31.483Z,11.10
2019-03-03T14:31:59.564Z,11.12
2019-03-03T14:34:32.909Z,11.27
2019-03-03T14:37:01.429Z,11.25
2019-03-03T14:39:29.526Z,11.20
2019-03-03T14:41:57.876Z,11.21
2019-03-03T14:44:25.936Z,11.18
2019-03-03T14:47:00.771Z,11.20
2019-03-03T14:49:36.503Z,11.26
2019-03-03T14:52:12.551Z,11.22
2019-03-03T14:54:41.267Z,11.20
2019-03-03T14:57:09.370Z,11.16
2019-03-03T14:59:37.434Z,11.20
2019-03-03T15:02:05.595Z,11.16
2019-03-03T15:04:33.670Z,11.15
2019-03-03T15:07:01.868Z,11.22
2019-03-03T15:09:30.665Z,11.18
2019-03-03T15:11:59.070Z,11.15
2019-03-03T15:14:27.217Z,11.17
2019-03-03T15:16:55.359Z,11.19
2019-03-03T15:19:23.441Z,11.21
2019-03-03T15:21:51.534Z,11.23
2019-03-03T15:24:19.747Z,11.17
2019-03-03T15:26:47.867Z,11.21
2019-03-03T15:29:15.947Z,11.26
2019-03-03T15:31:44.183Z,11.15
2019-03-03T15:34:12.249Z,11.18
2019-03-03T15:36:40.320Z,11.19
2019-03-03T15:39:09.519Z,11.21
2019-03-03T15:41:37.985Z,11.19
2019-03-03T15:44:06.099Z,11.18
2019-03-03T15:46:34.272Z,11.21
2019-03-03T15:49:02.374Z,11.18
2019-03-03T15:51:30.540Z,11.20
2019-03-03T15:53:58.591Z,11.18
2019-03-03T15:56:26.698Z,11.22
2019-03-03T15:58:55.873Z,11.20
2019-03-03T16:01:24.153Z,11.21
2019-03-03T16:03:52.302Z,11.13
2019-03-03T16:06:20.404Z,11.16
2019-03-03T16:08:48.496Z,11.14
2019-03-03T16:11:16.601Z,11.07
2019-03-03T16:13:44.668Z,11.15
2019-03-03T16:16:13.215Z,11.10
2019-03-03T16:18:41.421Z,11.08
2019-03-03T16:21:09.509Z,11.07
2019-03-03T16:23:37.582Z,11.11
2019-03-03T16:26:05.754Z,11.06
2019-03-03T16:28:33.923Z,11.00
2019-03-03T16:31:01.958Z,11.05
2019-03-03T16:33:30.037Z,11.01
2019-03-03T16:35:58.130Z,11.00
2019-03-03T16:38:26.229Z,11.04
2019-03-03T16:40:55.222Z,11.00
2019-03-03T16:43:23.438Z,10.99
2019-03-03T16:45:51.733Z,10.99
2019-03-03T16:48:20.026Z,11.00
2019-03-03T16:50:48.230Z,10.99
2019-03-03T16:53:16.357Z,10.97
2019-03-03T16:55:44.437Z,10.92
2019-03-03T16:58:12.715Z,10.93
2019-03-03T17:00:40.916Z,10.92
2019-03-03T17:03:09.010Z,10.95
2019-03-03T17:05:37.458Z,10.91
2019-03-03T17:08:05.534Z,10.87
2019-03-03T17:10:34.000Z,10.85
2019-03-03T17:13:02.589Z,10.82
2019-03-03T17:15:30.642Z,10.79
2019-03-03T17:18:00.146Z,10.81
2019-03-03T17:20:28.522Z,10.79
2019-03-03T17:22:56.620Z,10.80
2019-03-03T17:25:24.847Z,10.77
2019-03-03T17:27:53.385Z,10.77
2019-03-03T17:30:22.069Z,10.76
2019-03-03T17:32:50.167Z,10.77
2019-03-03T17:35:18.304Z,10.73
2019-03-03T17:37:46.432Z,10.76
2019-03-03T17:40:16.978Z,10.77
2019-03-03T17:42:45.561Z,10.73
2019-03-03T17:45:16.801Z,10.73
2019-03-03T17:47:45.002Z,10.75
2019-03-03T17:50:14.567Z,10.74
2019-03-03T17:52:44.859Z,10.76
2019-03-03T17:55:14.353Z,10.71
2019-03-03T17:57:42.494Z,10.74
2019-03-03T18:00:14.529Z,10.73
2019-03-03T18:02:42.763Z,10.74
2019-03-03T18:05:10.945Z,10.73
2019-03-03T18:07:39.131Z,10.70
2019-03-03T18:10:08.163Z,10.69
2019-03-03T18:12:36.275Z,10.67
2019-03-03T18:15:07.006Z,10.69
2019-03-03T18:17:35.121Z,10.66
2019-03-03T18:20:04.010Z,10.67
2019-03-03T18:22:32.157Z,10.67
2019-03-03T18:25:00.260Z,10.68
2019-03-03T18:27:29.144Z,10.66
2019-03-03T18:29:57.206Z,10.62
2019-03-03T18:32:25.374Z,10.63
2019-03-03T18:34:53.432Z,10.65
2019-03-03T18:37:21.638Z,10.63
2019-03-03T18:39:50.183Z,10.68
2019-03-03T18:42:18.370Z,10.69
2019-03-03T18:44:46.492Z,10.69
2019-03-03T18:47:16.282Z,10.66
2019-03-03T18:49:44.415Z,10.64
2019-03-03T18:52:12.580Z,10.68
2019-03-03T18:54:40.623Z,10.71
2019-03-03T18:57:08.848Z,10.73
2019-03-03T18:59:36.924Z,10.75
2019-03-03T19:02:05.133Z,10.76
2019-03-03T19:04:33.531Z,10.70
2019-03-03T19:07:01.604Z,10.79
2019-03-03T19:09:29.771Z,10.78
2019-03-03T19:11:58.129Z,10.87
2019-03-03T19:14:28.486Z,10.84
2019-03-03T19:16:56.258Z,10.88
2019-03-03T19:19:24.340Z,10.86
2019-03-03T19:21:52.571Z,10.83
2019-03-03T19:24:20.683Z,10.85
2019-03-03T19:26:48.716Z,10.89
2019-03-03T19:29:17.176Z,10.80
2019-03-03T19:31:45.280Z,10.82
2019-03-03T19:34:13.534Z,10.83
2019-03-03T19:36:41.721Z,10.82
2019-03-03T19:39:10.386Z,10.76
2019-03-03T19:41:38.590Z,10.77
2019-03-03T19:44:07.357Z,10.77
2019-03-03T19:46:35.474Z,10.79
2019-03-03T19:49:03.635Z,10.74
2019-03-03T19:51:31.735Z,10.70
2019-03-03T19:53:59.852Z,10.74
2019-03-03T19:56:27.927Z,10.77
2019-03-03T19:58:56.127Z,10.74
2019-03-03T20:01:24.237Z,10.77
2019-03-03T20:03:52.368Z,10.72
2019-03-03T20:06:20.556Z,10.71
2019-03-03T20:08:48.640Z,10.68
2019-03-03T20:11:17.014Z,10.70
2019-03-03T20:13:45.230Z,10.72
2019-03-03T20:16:13.398Z,10.67
2019-03-03T20:18:41.507Z,10.67
2019-03-03T20:21:09.578Z,10.72
2019-03-03T20:23:38.083Z,10.68
2019-03-03T20:26:06.265Z,10.64
2019-03-03T20:28:34.387Z,10.70
2019-03-03T20:31:03.361Z,10.69
2019-03-03T20:33:31.462Z,10.64
2019-03-03T20:36:00.106Z,10.70
2019-03-03T20:38:28.193Z,10.60
2019-03-03T20:40:56.273Z,10.61
2019-03-03T20:43:24.360Z,10.63
2019-03-03T20:45:52.736Z,10.64
2019-03-03T20:48:20.939Z,10.68
2019-03-03T20:50:49.398Z,10.69
2019-03-03T20:53:19.379Z,10.70
2019-03-03T20:55:47.550Z,10.73
2019-03-03T20:58:17.087Z,10.75
2019-03-03T21:00:46.142Z,10.74
2019-03-03T21:03:14.272Z,10.73
2019-03-03T21:05:42.342Z,10.76
2019-03-03T21:08:10.467Z,10.78
2019-03-03T21:10:38.572Z,10.80
2019-03-03T21:13:06.705Z,10.80
2019-03-03T21:15:34.822Z,10.80
2019-03-03T21:18:02.963Z,10.82
2019-03-03T21:20:31.050Z,10.76
2019-03-03T21:22:59.281Z,10.86
2019-03-03T21:25:27.500Z,10.84
2019-03-03T21:27:56.214Z,10.88
2019-03-03T21:30:24.277Z,10.86
2019-03-03T21:32:53.321Z,10.90
2019-03-03T21:35:21.824Z,10.91
2019-03-03T21:37:49.992Z,10.90
2019-03-03T21:40:18.278Z,10.87
2019-03-03T21:42:46.466Z,10.88
2019-03-03T21:45:16.861Z,10.85
2019-03-03T21:47:44.944Z,10.86
2019-03-03T21:50:15.753Z,10.90
2019-03-03T21:52:43.950Z,10.90
2019-03-03T21:55:12.656Z,10.95
2019-03-03T21:57:40.703Z,10.97
2019-03-03T22:00:38.596Z,10.98
2019-03-03T22:03:07.001Z,10.97
2019-03-03T22:05:35.105Z,10.97
2019-03-03T22:08:03.717Z,10.92
2019-03-03T22:10:32.482Z,10.91
2019-03-03T22:13:06.221Z,10.89
2019-03-03T22:15:34.420Z,10.85
2019-03-03T22:18:02.515Z,10.82
2019-03-03T22:20:30.626Z,10.82
2019-03-03T22:23:01.410Z,10.82
2019-03-03T22:25:29.799Z,10.83
2019-03-03T22:27:58.336Z,10.78
2019-03-03T22:30:26.439Z,10.81
2019-03-03T22:32:54.693Z,10.78
2019-03-03T22:35:22.928Z,10.81
2019-03-03T22:37:51.429Z,10.79
2019-03-03T22:40:20.173Z,10.68
2019-03-03T22:42:48.254Z,10.77
2019-03-03T22:45:16.579Z,10.70
2019-03-03T22:47:44.622Z,10.75
2019-03-03T22:50:13.420Z,10.79
2019-03-03T22:52:41.656Z,10.72
2019-03-03T22:55:10.241Z,10.71
2019-03-03T22:57:38.386Z,10.65
2019-03-03T23:00:43.801Z,10.69
2019-03-03T23:03:15.504Z,10.63
2019-03-03T23:06:18.594Z,10.63
2019-03-03T23:09:14.347Z,10.56
2019-03-03T23:12:10.470Z,10.58
2019-03-03T23:15:29.312Z,10.58
2019-03-03T23:18:46.168Z,10.61
2019-03-03T23:21:46.647Z,10.59
2019-03-03T23:25:02.999Z,10.60
2019-03-03T23:27:31.133Z,10.55
2019-03-03T23:29:59.219Z,10.46
2019-03-03T23:32:27.411Z,10.47
2019-03-03T23:34:55.508Z,10.44
2019-03-03T23:37:24.881Z,10.43
2019-03-03T23:39:53.411Z,10.45
2019-03-03T23:42:21.524Z,10.46
2019-03-03T23:44:49.595Z,10.43
2019-03-03T23:47:17.816Z,10.48
2019-03-03T23:49:45.908Z,10.48
2019-03-03T23:52:14.020Z,10.49
2019-03-03T23:54:42.160Z,10.45
2019-03-03T23:57:10.262Z,10.44
2019-03-03T23:59:38.736Z,10.44
